sensor_id;sensor_type;location;lat;lon;timestamp;pressure;altitude;pressure_sealevel;temperature;humidity
71666;BME280;59503;53.486;10.196;2023-02-08T00:02:08;104225.63;;;-3.68;100.00
71666;BME280;59503;53.486;10.196;2023-02-08T00:04:34;104216.66;;;-3.67;100.00
71666;BME280;59503;53.486;10.196;2023-02-08T00:06:59;104216.28;;;-3.64;100.00
71666;BME280;59503;53.486;10.196;2023-02-08T00:09:25;104218.31;;;-3.66;100.00
71666;BME280;59503;53.486;10.196;2023-02-08T00:11:50;104219.13;;;-3.66;100.00
71666;BME280;59503;53.486;10.196;2023-02-08T00:14:16;104218.50;;;-3.68;100.00
71666;BME280;59503;53.486;10.196;2023-02-08T00:16:41;104208.03;;;-3.69;100.00
71666;BME280;59503;53.486;10.196;2023-02-08T00:19:06;104201.06;;;-3.70;100.00
71666;BME280;59503;53.486;10.196;2023-02-08T00:21:32;104206.94;;;-3.75;100.00
71666;BME280;59503;53.486;10.196;2023-02-08T00:23:57;104191.47;;;-3.71;100.00
71666;BME280;59503;53.486;10.196;2023-02-08T00:26:23;104194.81;;;-3.78;100.00
71666;BME280;59503;53.486;10.196;2023-02-08T00:28:48;104194.28;;;-3.73;100.00
71666;BME280;59503;53.486;10.196;2023-02-08T00:31:14;104189.97;;;-3.74;100.00
71666;BME280;59503;53.486;10.196;2023-02-08T00:33:39;104190.44;;;-3.70;100.00
71666;BME280;59503;53.486;10.196;2023-02-08T00:36:06;104185.94;;;-3.70;100.00
71666;BME280;59503;53.486;10.196;2023-02-08T00:38:32;104187.03;;;-3.64;100.00
71666;BME280;59503;53.486;10.196;2023-02-08T00:40:58;104197.75;;;-3.72;100.00
71666;BME280;59503;53.486;10.196;2023-02-08T00:43:23;104192.81;;;-3.75;100.00
71666;BME280;59503;53.486;10.196;2023-02-08T00:45:57;104197.94;;;-3.74;100.00
71666;BME280;59503;53.486;10.196;2023-02-08T00:48:24;104183.66;;;-3.73;100.00
71666;BME280;59503;53.486;10.196;2023-02-08T00:53:29;104167.88;;;-3.74;100.00
71666;BME280;59503;53.486;10.196;2023-02-08T00:55:55;104181.09;;;-3.66;100.00
71666;BME280;59503;53.486;10.196;2023-02-08T00:58:21;104168.78;;;-3.67;100.00
71666;BME280;59503;53.486;10.196;2023-02-08T01:00:50;104174.50;;;-3.70;100.00
71666;BME280;59503;53.486;10.196;2023-02-08T01:03:17;104178.16;;;-3.71;100.00
71666;BME280;59503;53.486;10.196;2023-02-08T01:05:42;104176.22;;;-3.78;100.00
71666;BME280;59503;53.486;10.196;2023-02-08T01:08:08;104187.22;;;-3.81;100.00
71666;BME280;59503;53.486;10.196;2023-02-08T01:10:33;104177.16;;;-3.85;100.00
71666;BME280;59503;53.486;10.196;2023-02-08T01:12:58;104175.66;;;-3.88;100.00
71666;BME280;59503;53.486;10.196;2023-02-08T01:15:26;104159.16;;;-3.98;100.00
71666;BME280;59503;53.486;10.196;2023-02-08T01:17:55;104174.44;;;-4.00;100.00
71666;BME280;59503;53.486;10.196;2023-02-08T01:20:22;104177.66;;;-4.04;100.00
71666;BME280;59503;53.486;10.196;2023-02-08T01:22:47;104175.56;;;-4.09;100.00
71666;BME280;59503;53.486;10.196;2023-02-08T01:25:13;104167.75;;;-4.10;100.00
71666;BME280;59503;53.486;10.196;2023-02-08T01:27:39;104172.31;;;-4.19;100.00
71666;BME280;59503;53.486;10.196;2023-02-08T01:30:04;104175.78;;;-4.18;100.00
71666;BME280;59503;53.486;10.196;2023-02-08T01:32:30;104179.34;;;-4.26;100.00
71666;BME280;59503;53.486;10.196;2023-02-08T01:34:55;104186.38;;;-4.33;100.00
71666;BME280;59503;53.486;10.196;2023-02-08T01:37:21;104155.84;;;-4.51;100.00
71666;BME280;59503;53.486;10.196;2023-02-08T01:39:46;104165.78;;;-4.53;100.00
71666;BME280;59503;53.486;10.196;2023-02-08T01:42:16;104168.28;;;-4.52;100.00
71666;BME280;59503;53.486;10.196;2023-02-08T01:47:40;104163.38;;;-4.63;100.00
71666;BME280;59503;53.486;10.196;2023-02-08T01:50:06;104178.66;;;-4.65;100.00
71666;BME280;59503;53.486;10.196;2023-02-08T01:52:31;104181.97;;;-4.63;100.00
71666;BME280;59503;53.486;10.196;2023-02-08T01:55:31;104170.22;;;-4.68;100.00
71666;BME280;59503;53.486;10.196;2023-02-08T01:58:00;104184.81;;;-4.64;100.00
71666;BME280;59503;53.486;10.196;2023-02-08T02:00:27;104190.69;;;-4.54;100.00
71666;BME280;59503;53.486;10.196;2023-02-08T02:02:54;104176.13;;;-4.58;100.00
71666;BME280;59503;53.486;10.196;2023-02-08T02:05:24;104191.88;;;-4.57;100.00
71666;BME280;59503;53.486;10.196;2023-02-08T02:07:53;104187.69;;;-4.51;100.00
71666;BME280;59503;53.486;10.196;2023-02-08T02:10:31;104184.50;;;-4.47;100.00
71666;BME280;59503;53.486;10.196;2023-02-08T02:13:02;104172.88;;;-4.46;100.00
71666;BME280;59503;53.486;10.196;2023-02-08T02:15:28;104176.31;;;-4.37;100.00
71666;BME280;59503;53.486;10.196;2023-02-08T02:17:53;104178.78;;;-4.36;100.00
71666;BME280;59503;53.486;10.196;2023-02-08T02:51:30;104162.38;;;-4.62;100.00
71666;BME280;59503;53.486;10.196;2023-02-08T02:54:15;104161.56;;;-4.62;100.00
71666;BME280;59503;53.486;10.196;2023-02-08T02:56:47;104166.16;;;-4.56;100.00
71666;BME280;59503;53.486;10.196;2023-02-08T02:59:14;104164.81;;;-4.52;100.00
71666;BME280;59503;53.486;10.196;2023-02-08T03:01:42;104162.28;;;-4.46;100.00
71666;BME280;59503;53.486;10.196;2023-02-08T03:04:17;104172.13;;;-4.54;100.00
71666;BME280;59503;53.486;10.196;2023-02-08T03:20:49;104160.47;;;-4.53;100.00
71666;BME280;59503;53.486;10.196;2023-02-08T03:23:20;104171.28;;;-4.55;100.00
71666;BME280;59503;53.486;10.196;2023-02-08T03:28:54;104171.25;;;-4.69;100.00
71666;BME280;59503;53.486;10.196;2023-02-08T03:31:44;104183.97;;;-4.65;100.00
71666;BME280;59503;53.486;10.196;2023-02-08T03:37:12;104181.84;;;-4.69;100.00
71666;BME280;59503;53.486;10.196;2023-02-08T03:39:40;104200.13;;;-4.74;100.00
71666;BME280;59503;53.486;10.196;2023-02-08T03:42:21;104196.22;;;-4.86;100.00
71666;BME280;59503;53.486;10.196;2023-02-08T03:45:00;104204.41;;;-4.96;100.00
71666;BME280;59503;53.486;10.196;2023-02-08T03:47:29;104191.50;;;-4.99;100.00
71666;BME280;59503;53.486;10.196;2023-02-08T03:49:59;104194.16;;;-5.07;100.00
71666;BME280;59503;53.486;10.196;2023-02-08T03:52:29;104202.34;;;-5.17;100.00
71666;BME280;59503;53.486;10.196;2023-02-08T03:55:07;104199.25;;;-5.28;100.00
71666;BME280;59503;53.486;10.196;2023-02-08T03:57:49;104194.06;;;-5.22;100.00
71666;BME280;59503;53.486;10.196;2023-02-08T04:00:17;104190.09;;;-5.26;100.00
71666;BME280;59503;53.486;10.196;2023-02-08T04:02:53;104189.47;;;-5.28;100.00
71666;BME280;59503;53.486;10.196;2023-02-08T04:05:21;104190.81;;;-5.32;100.00
71666;BME280;59503;53.486;10.196;2023-02-08T04:07:47;104194.63;;;-5.34;100.00
71666;BME280;59503;53.486;10.196;2023-02-08T04:10:12;104195.13;;;-5.39;100.00
71666;BME280;59503;53.486;10.196;2023-02-08T04:12:37;104195.66;;;-5.43;100.00
71666;BME280;59503;53.486;10.196;2023-02-08T04:15:03;104193.66;;;-5.41;100.00
71666;BME280;59503;53.486;10.196;2023-02-08T04:17:29;104204.75;;;-5.38;100.00
71666;BME280;59503;53.486;10.196;2023-02-08T04:19:54;104196.81;;;-5.38;100.00
71666;BME280;59503;53.486;10.196;2023-02-08T04:22:19;104197.25;;;-5.34;100.00
71666;BME280;59503;53.486;10.196;2023-02-08T04:24:45;104202.44;;;-5.33;100.00
71666;BME280;59503;53.486;10.196;2023-02-08T04:27:10;104200.22;;;-5.29;100.00
71666;BME280;59503;53.486;10.196;2023-02-08T04:29:36;104184.50;;;-5.31;100.00
71666;BME280;59503;53.486;10.196;2023-02-08T04:32:01;104199.56;;;-5.23;100.00
71666;BME280;59503;53.486;10.196;2023-02-08T04:34:27;104205.69;;;-5.23;100.00
71666;BME280;59503;53.486;10.196;2023-02-08T04:36:53;104199.88;;;-5.18;100.00
71666;BME280;59503;53.486;10.196;2023-02-08T04:39:18;104194.38;;;-5.17;100.00
71666;BME280;59503;53.486;10.196;2023-02-08T04:41:44;104182.28;;;-5.11;100.00
71666;BME280;59503;53.486;10.196;2023-02-08T04:44:09;104187.09;;;-5.15;100.00
71666;BME280;59503;53.486;10.196;2023-02-08T04:46:34;104173.31;;;-5.10;100.00
71666;BME280;59503;53.486;10.196;2023-02-08T04:49:00;104174.97;;;-5.09;100.00
71666;BME280;59503;53.486;10.196;2023-02-08T04:51:25;104188.69;;;-5.06;100.00
71666;BME280;59503;53.486;10.196;2023-02-08T04:53:51;104185.59;;;-5.09;100.00
71666;BME280;59503;53.486;10.196;2023-02-08T04:56:16;104190.53;;;-5.06;100.00
71666;BME280;59503;53.486;10.196;2023-02-08T04:58:42;104190.88;;;-5.09;100.00
71666;BME280;59503;53.486;10.196;2023-02-08T05:01:07;104187.88;;;-5.06;100.00
71666;BME280;59503;53.486;10.196;2023-02-08T05:03:35;104182.94;;;-5.17;100.00
71666;BME280;59503;53.486;10.196;2023-02-08T05:06:01;104185.94;;;-5.20;100.00
71666;BME280;59503;53.486;10.196;2023-02-08T05:08:26;104180.47;;;-5.19;100.00
71666;BME280;59503;53.486;10.196;2023-02-08T05:10:52;104180.34;;;-5.25;100.00
71666;BME280;59503;53.486;10.196;2023-02-08T05:13:18;104176.22;;;-5.28;100.00
71666;BME280;59503;53.486;10.196;2023-02-08T05:15:43;104181.53;;;-5.28;100.00
71666;BME280;59503;53.486;10.196;2023-02-08T05:18:08;104173.72;;;-5.29;100.00
71666;BME280;59503;53.486;10.196;2023-02-08T05:20:34;104171.06;;;-5.29;100.00
71666;BME280;59503;53.486;10.196;2023-02-08T05:22:59;104173.25;;;-5.33;100.00
71666;BME280;59503;53.486;10.196;2023-02-08T05:25:25;104174.06;;;-5.32;100.00
71666;BME280;59503;53.486;10.196;2023-02-08T05:27:51;104166.81;;;-5.38;100.00
71666;BME280;59503;53.486;10.196;2023-02-08T05:30:16;104170.31;;;-5.38;100.00
71666;BME280;59503;53.486;10.196;2023-02-08T05:32:41;104170.94;;;-5.36;100.00
71666;BME280;59503;53.486;10.196;2023-02-08T05:35:07;104170.31;;;-5.38;100.00
71666;BME280;59503;53.486;10.196;2023-02-08T05:37:32;104168.84;;;-5.48;100.00
71666;BME280;59503;53.486;10.196;2023-02-08T05:39:58;104177.59;;;-5.40;100.00
71666;BME280;59503;53.486;10.196;2023-02-08T05:42:23;104177.59;;;-5.40;100.00
71666;BME280;59503;53.486;10.196;2023-02-08T05:44:49;104177.78;;;-5.41;100.00
71666;BME280;59503;53.486;10.196;2023-02-08T05:47:14;104184.06;;;-5.42;100.00
71666;BME280;59503;53.486;10.196;2023-02-08T05:49:39;104177.47;;;-5.54;100.00
71666;BME280;59503;53.486;10.196;2023-02-08T05:52:05;104177.63;;;-5.56;100.00
71666;BME280;59503;53.486;10.196;2023-02-08T05:54:30;104177.94;;;-5.51;100.00
71666;BME280;59503;53.486;10.196;2023-02-08T05:56:56;104174.81;;;-5.54;100.00
71666;BME280;59503;53.486;10.196;2023-02-08T05:59:21;104160.28;;;-5.58;100.00
71666;BME280;59503;53.486;10.196;2023-02-08T06:01:47;104171.19;;;-5.53;100.00
71666;BME280;59503;53.486;10.196;2023-02-08T06:04:13;104169.88;;;-5.57;100.00
71666;BME280;59503;53.486;10.196;2023-02-08T06:06:38;104174.81;;;-5.54;100.00
71666;BME280;59503;53.486;10.196;2023-02-08T06:09:03;104161.75;;;-5.56;100.00
71666;BME280;59503;53.486;10.196;2023-02-08T06:11:29;104170.00;;;-5.51;100.00
71666;BME280;59503;53.486;10.196;2023-02-08T06:13:54;104176.13;;;-5.50;100.00
71666;BME280;59503;53.486;10.196;2023-02-08T06:16:20;104178.44;;;-5.47;100.00
71666;BME280;59503;53.486;10.196;2023-02-08T06:18:45;104185.72;;;-5.49;100.00
71666;BME280;59503;53.486;10.196;2023-02-08T06:21:11;104178.09;;;-5.44;100.00
71666;BME280;59503;53.486;10.196;2023-02-08T06:23:37;104162.91;;;-5.58;100.00
71666;BME280;59503;53.486;10.196;2023-02-08T06:26:02;104161.56;;;-5.46;100.00
71666;BME280;59503;53.486;10.196;2023-02-08T06:28:27;104166.03;;;-5.47;100.00
71666;BME280;59503;53.486;10.196;2023-02-08T06:30:53;104169.50;;;-5.46;100.00
71666;BME280;59503;53.486;10.196;2023-02-08T06:33:18;104166.56;;;-5.59;100.00
71666;BME280;59503;53.486;10.196;2023-02-08T06:35:50;104178.13;;;-5.52;100.00
71666;BME280;59503;53.486;10.196;2023-02-08T06:38:16;104179.97;;;-5.53;100.00
71666;BME280;59503;53.486;10.196;2023-02-08T06:40:41;104183.44;;;-5.52;100.00
71666;BME280;59503;53.486;10.196;2023-02-08T06:43:07;104188.69;;;-5.44;100.00
71666;BME280;59503;53.486;10.196;2023-02-08T06:45:32;104196.63;;;-5.44;100.00
71666;BME280;59503;53.486;10.196;2023-02-08T06:47:58;104181.56;;;-5.44;100.00
71666;BME280;59503;53.486;10.196;2023-02-08T06:50:23;104180.41;;;-5.41;100.00
71666;BME280;59503;53.486;10.196;2023-02-08T06:52:49;104187.38;;;-5.40;100.00
71666;BME280;59503;53.486;10.196;2023-02-08T06:55:14;104177.28;;;-5.45;100.00
71666;BME280;59503;53.486;10.196;2023-02-08T06:57:40;104180.75;;;-5.44;100.00
71666;BME280;59503;53.486;10.196;2023-02-08T07:00:06;104171.50;;;-5.48;100.00
71666;BME280;59503;53.486;10.196;2023-02-08T07:02:31;104189.69;;;-5.45;100.00
71666;BME280;59503;53.486;10.196;2023-02-08T07:04:57;104183.06;;;-5.49;100.00
71666;BME280;59503;53.486;10.196;2023-02-08T07:07:22;104205.75;;;-5.39;100.00
71666;BME280;59503;53.486;10.196;2023-02-08T07:09:48;104207.41;;;-5.38;100.00
71666;BME280;59503;53.486;10.196;2023-02-08T07:12:13;104211.00;;;-5.23;100.00
71666;BME280;59503;53.486;10.196;2023-02-08T07:14:41;104205.16;;;-5.18;100.00
71666;BME280;59503;53.486;10.196;2023-02-08T07:17:07;104190.53;;;-5.06;100.00
71666;BME280;59503;53.486;10.196;2023-02-08T07:19:33;104188.13;;;-4.93;100.00
71666;BME280;59503;53.486;10.196;2023-02-08T07:21:59;104181.44;;;-4.81;100.00
71666;BME280;59503;53.486;10.196;2023-02-08T07:24:38;104183.38;;;-4.75;100.00
71666;BME280;59503;53.486;10.196;2023-02-08T07:27:05;104178.66;;;-4.65;100.00
71666;BME280;59503;53.486;10.196;2023-02-08T07:29:32;104182.25;;;-4.58;100.00
71666;BME280;59503;53.486;10.196;2023-02-08T07:31:59;104178.44;;;-4.55;100.00
71666;BME280;59503;53.486;10.196;2023-02-08T07:34:27;104176.09;;;-4.50;100.00
71666;BME280;59503;53.486;10.196;2023-02-08T07:36:52;104168.41;;;-4.45;100.00
71666;BME280;59503;53.486;10.196;2023-02-08T07:39:18;104175.75;;;-4.33;100.00
71666;BME280;59503;53.486;10.196;2023-02-08T07:41:43;104162.56;;;-4.41;100.00
71666;BME280;59503;53.486;10.196;2023-02-08T07:44:08;104167.91;;;-4.26;100.00
71666;BME280;59503;53.486;10.196;2023-02-08T07:46:34;104172.97;;;-4.17;100.00
71666;BME280;59503;53.486;10.196;2023-02-08T07:48:59;104175.44;;;-4.15;100.00
71666;BME280;59503;53.486;10.196;2023-02-08T07:51:25;104174.97;;;-4.19;100.00
71666;BME280;59503;53.486;10.196;2023-02-08T07:53:50;104160.69;;;-4.18;100.00
71666;BME280;59503;53.486;10.196;2023-02-08T07:56:16;104175.84;;;-4.04;100.00
71666;BME280;59503;53.486;10.196;2023-02-08T07:58:42;104169.78;;;-3.98;100.00
71666;BME280;59503;53.486;10.196;2023-02-08T08:01:08;104173.84;;;-3.87;100.00
71666;BME280;59503;53.486;10.196;2023-02-08T08:03:33;104170.72;;;-3.91;100.00
71666;BME280;59503;53.486;10.196;2023-02-08T08:05:58;104164.13;;;-3.80;100.00
71666;BME280;59503;53.486;10.196;2023-02-08T08:08:24;104171.09;;;-3.79;100.00
71666;BME280;59503;53.486;10.196;2023-02-08T08:10:49;104163.59;;;-3.75;100.00
71666;BME280;59503;53.486;10.196;2023-02-08T08:13:15;104164.13;;;-3.80;100.00
71666;BME280;59503;53.486;10.196;2023-02-08T08:15:40;104162.22;;;-3.71;100.00
71666;BME280;59503;53.486;10.196;2023-02-08T08:18:07;104154.06;;;-3.70;100.00
71666;BME280;59503;53.486;10.196;2023-02-08T08:20:32;104152.47;;;-3.64;100.00
71666;BME280;59503;53.486;10.196;2023-02-08T08:22:59;104156.50;;;-3.54;100.00
71666;BME280;59503;53.486;10.196;2023-02-08T08:25:24;104148.44;;;-3.46;100.00
71666;BME280;59503;53.486;10.196;2023-02-08T08:27:51;104155.03;;;-3.42;100.00
71666;BME280;59503;53.486;10.196;2023-02-08T08:30:17;104151.22;;;-3.39;100.00
71666;BME280;59503;53.486;10.196;2023-02-08T08:32:42;104167.31;;;-3.26;100.00
71666;BME280;59503;53.486;10.196;2023-02-08T08:35:08;104163.72;;;-3.19;100.00
71666;BME280;59503;53.486;10.196;2023-02-08T08:37:34;104156.06;;;-3.07;100.00
71666;BME280;59503;53.486;10.196;2023-02-08T08:40:00;104151.78;;;-3.08;100.00
71666;BME280;59503;53.486;10.196;2023-02-08T08:42:26;104154.03;;;-2.91;100.00
71666;BME280;59503;53.486;10.196;2023-02-08T08:44:52;104158.06;;;-2.74;100.00
71666;BME280;59503;53.486;10.196;2023-02-08T08:47:18;104149.25;;;-2.53;100.00
71666;BME280;59503;53.486;10.196;2023-02-08T08:49:43;104148.22;;;-2.31;100.00
71666;BME280;59503;53.486;10.196;2023-02-08T08:52:09;104148.56;;;-2.13;100.00
71666;BME280;59503;53.486;10.196;2023-02-08T08:54:35;104157.06;;;-2.03;98.09
71666;BME280;59503;53.486;10.196;2023-02-08T08:57:01;104155.81;;;-1.73;97.01
71666;BME280;59503;53.486;10.196;2023-02-08T08:59:26;104151.41;;;-1.53;94.82
71666;BME280;59503;53.486;10.196;2023-02-08T09:01:52;104140.25;;;-1.29;95.04
71666;BME280;59503;53.486;10.196;2023-02-08T09:04:17;104142.97;;;-1.02;93.28
71666;BME280;59503;53.486;10.196;2023-02-08T09:06:43;104140.72;;;-0.99;93.07
71666;BME280;59503;53.486;10.196;2023-02-08T09:09:08;104142.38;;;-1.04;93.38
71666;BME280;59503;53.486;10.196;2023-02-08T09:11:34;104139.72;;;-1.04;93.25
71666;BME280;59503;53.486;10.196;2023-02-08T09:14:03;104131.66;;;-1.17;92.13
71666;BME280;59503;53.486;10.196;2023-02-08T09:16:29;104144.28;;;-1.39;92.55
71666;BME280;59503;53.486;10.196;2023-02-08T09:18:54;104138.06;;;-1.53;94.25
71666;BME280;59503;53.486;10.196;2023-02-08T09:21:21;104141.31;;;-1.64;93.52
71666;BME280;59503;53.486;10.196;2023-02-08T09:23:49;104148.75;;;-1.53;94.34
71666;BME280;59503;53.486;10.196;2023-02-08T09:26:16;104146.72;;;-1.51;94.27
71666;BME280;59503;53.486;10.196;2023-02-08T09:28:42;104136.41;;;-1.60;94.78
71666;BME280;59503;53.486;10.196;2023-02-08T09:31:15;104145.47;;;-1.55;93.48
71666;BME280;59503;53.486;10.196;2023-02-08T09:33:42;104146.25;;;-1.61;94.34
71666;BME280;59503;53.486;10.196;2023-02-08T09:36:08;104139.28;;;-1.62;94.48
71666;BME280;59503;53.486;10.196;2023-02-08T09:38:33;104136.22;;;-1.59;94.81
71666;BME280;59503;53.486;10.196;2023-02-08T09:44:16;104128.28;;;-1.39;94.03
71666;BME280;59503;53.486;10.196;2023-02-08T09:47:04;104123.25;;;-1.14;91.76
71666;BME280;59503;53.486;10.196;2023-02-08T09:49:35;104120.66;;;-0.88;91.06
71666;BME280;59503;53.486;10.196;2023-02-08T09:52:10;104125.84;;;-0.61;89.45
71666;BME280;59503;53.486;10.196;2023-02-08T09:54:41;104139.59;;;-0.57;87.63
71666;BME280;59503;53.486;10.196;2023-02-08T09:57:15;104130.75;;;-0.51;90.64
71666;BME280;59503;53.486;10.196;2023-02-08T09:59:51;104144.72;;;-0.30;89.59
71666;BME280;59503;53.486;10.196;2023-02-08T10:02:24;104145.34;;;-0.28;86.93
71666;BME280;59503;53.486;10.196;2023-02-08T10:04:54;104147.63;;;-0.31;86.89
71666;BME280;59503;53.486;10.196;2023-02-08T10:07:20;104144.09;;;-0.25;86.43
71666;BME280;59503;53.486;10.196;2023-02-08T10:09:46;104138.75;;;-0.25;87.68
71666;BME280;59503;53.486;10.196;2023-02-08T10:17:59;104122.81;;;0.32;82.37
71666;BME280;59503;53.486;10.196;2023-02-08T10:31:15;104123.38;;;0.98;79.89
71666;BME280;59503;53.486;10.196;2023-02-08T10:34:12;104118.50;;;1.19;79.58
71666;BME280;59503;53.486;10.196;2023-02-08T10:36:43;104129.47;;;1.11;79.75
71666;BME280;59503;53.486;10.196;2023-02-08T10:39:17;104126.56;;;0.82;81.96
71666;BME280;59503;53.486;10.196;2023-02-08T10:41:44;104128.84;;;0.78;80.85
71666;BME280;59503;53.486;10.196;2023-02-08T10:44:46;104126.69;;;0.49;82.59
71666;BME280;59503;53.486;10.196;2023-02-08T10:47:44;104137.19;;;0.51;82.02
71666;BME280;59503;53.486;10.196;2023-02-08T10:50:33;104143.22;;;0.33;82.27
71666;BME280;59503;53.486;10.196;2023-02-08T10:52:59;104136.19;;;0.45;83.16
71666;BME280;59503;53.486;10.196;2023-02-08T10:55:25;104128.34;;;0.50;83.39
71666;BME280;59503;53.486;10.196;2023-02-08T10:57:54;104122.94;;;0.63;82.87
71666;BME280;59503;53.486;10.196;2023-02-08T11:00:25;104126.63;;;0.62;82.24
71666;BME280;59503;53.486;10.196;2023-02-08T11:02:52;104129.13;;;0.57;82.16
71666;BME280;59503;53.486;10.196;2023-02-08T11:05:39;104123.81;;;0.44;80.31
71666;BME280;59503;53.486;10.196;2023-02-08T11:08:06;104128.38;;;0.44;83.33
71666;BME280;59503;53.486;10.196;2023-02-08T11:10:32;104108.59;;;0.45;81.37
71666;BME280;59503;53.486;10.196;2023-02-08T11:13:14;104119.50;;;0.50;80.56
71666;BME280;59503;53.486;10.196;2023-02-08T11:15:47;104108.09;;;0.61;79.20
71666;BME280;59503;53.486;10.196;2023-02-08T11:18:20;104109.50;;;0.70;80.51
71666;BME280;59503;53.486;10.196;2023-02-08T11:20:49;104106.81;;;0.76;79.46
71666;BME280;59503;53.486;10.196;2023-02-08T11:23:21;104114.91;;;1.01;77.68
71666;BME280;59503;53.486;10.196;2023-02-08T11:25:48;104112.72;;;1.22;75.95
71666;BME280;59503;53.486;10.196;2023-02-08T11:28:26;104100.50;;;1.26;76.11
71666;BME280;59503;53.486;10.196;2023-02-08T11:31:13;104101.91;;;1.36;74.72
71666;BME280;59503;53.486;10.196;2023-02-08T11:34:00;104092.22;;;1.59;73.60
71666;BME280;59503;53.486;10.196;2023-02-08T11:36:27;104090.72;;;1.63;72.06
71666;BME280;59503;53.486;10.196;2023-02-08T11:38:53;104093.03;;;1.60;72.11
71666;BME280;59503;53.486;10.196;2023-02-08T11:41:20;104090.63;;;1.52;69.05
71666;BME280;59503;53.486;10.196;2023-02-08T11:43:56;104086.19;;;1.64;68.83
71666;BME280;59503;53.486;10.196;2023-02-08T11:46:25;104085.84;;;1.78;67.73
71666;BME280;59503;53.486;10.196;2023-02-08T11:48:53;104088.19;;;1.93;65.93
71666;BME280;59503;53.486;10.196;2023-02-08T11:51:37;104078.63;;;1.97;66.95
71666;BME280;59503;53.486;10.196;2023-02-08T11:54:04;104083.44;;;2.13;68.42
71666;BME280;59503;53.486;10.196;2023-02-08T11:56:32;104071.34;;;2.22;65.91
71666;BME280;59503;53.486;10.196;2023-02-08T11:59:18;104086.41;;;2.23;64.18
71666;BME280;59503;53.486;10.196;2023-02-08T12:01:44;104071.03;;;2.12;63.48
71666;BME280;59503;53.486;10.196;2023-02-08T12:04:12;104074.47;;;2.19;63.93
71666;BME280;59503;53.486;10.196;2023-02-08T12:23:13;104051.34;;;2.66;61.20
71666;BME280;59503;53.486;10.196;2023-02-08T12:25:57;104055.19;;;2.88;63.01
71666;BME280;59503;53.486;10.196;2023-02-08T12:34:10;104039.41;;;3.44;59.70
71666;BME280;59503;53.486;10.196;2023-02-08T12:40:11;104027.81;;;3.32;58.95
71666;BME280;59503;53.486;10.196;2023-02-08T12:43:18;104015.63;;;3.29;58.98
71666;BME280;59503;53.486;10.196;2023-02-08T12:49:09;104007.94;;;3.21;59.14
71666;BME280;59503;53.486;10.196;2023-02-08T12:54:27;103986.31;;;3.39;59.01
71666;BME280;59503;53.486;10.196;2023-02-08T12:56:56;103988.56;;;3.42;55.25
71666;BME280;59503;53.486;10.196;2023-02-08T12:59:29;103985.59;;;3.55;56.87
71666;BME280;59503;53.486;10.196;2023-02-08T13:01:59;103983.00;;;3.72;56.25
71666;BME280;59503;53.486;10.196;2023-02-08T13:04:42;103975.00;;;4.00;56.13
71666;BME280;59503;53.486;10.196;2023-02-08T13:07:39;103968.72;;;4.23;55.22
71666;BME280;59503;53.486;10.196;2023-02-08T13:10:40;103969.16;;;4.31;55.81
71666;BME280;59503;53.486;10.196;2023-02-08T13:13:23;103963.38;;;4.39;55.88
71666;BME280;59503;53.486;10.196;2023-02-08T13:15:56;103966.81;;;4.35;56.66
71666;BME280;59503;53.486;10.196;2023-02-08T13:18:29;103956.53;;;4.32;55.20
71666;BME280;59503;53.486;10.196;2023-02-08T13:21:07;103957.31;;;4.04;57.66
71666;BME280;59503;53.486;10.196;2023-02-08T13:23:39;103945.63;;;3.99;56.81
71666;BME280;59503;53.486;10.196;2023-02-08T13:26:10;103936.66;;;3.93;57.53
71666;BME280;59503;53.486;10.196;2023-02-08T13:28:38;103935.47;;;3.89;58.15
71666;BME280;59503;53.486;10.196;2023-02-08T13:34:01;103923.19;;;3.93;58.50
71666;BME280;59503;53.486;10.196;2023-02-08T13:36:34;103921.69;;;3.86;58.91
71666;BME280;59503;53.486;10.196;2023-02-08T13:39:03;103929.13;;;3.95;58.15
71666;BME280;59503;53.486;10.196;2023-02-08T13:41:30;103922.50;;;3.86;57.64
71666;BME280;59503;53.486;10.196;2023-02-08T13:44:02;103918.63;;;3.94;57.63
71666;BME280;59503;53.486;10.196;2023-02-08T13:46:56;103918.84;;;4.20;57.07
71666;BME280;59503;53.486;10.196;2023-02-08T13:52:10;103902.25;;;4.23;59.70
71666;BME280;59503;53.486;10.196;2023-02-08T13:54:36;103910.53;;;4.22;59.12
71666;BME280;59503;53.486;10.196;2023-02-08T13:57:47;103912.56;;;4.15;60.15
71666;BME280;59503;53.486;10.196;2023-02-08T14:00:20;103896.78;;;4.07;59.59
71666;BME280;59503;53.486;10.196;2023-02-08T14:03:01;103903.69;;;4.14;59.85
71666;BME280;59503;53.486;10.196;2023-02-08T14:08:01;103895.22;;;3.94;60.07
71666;BME280;59503;53.486;10.196;2023-02-08T14:10:40;103896.41;;;3.87;60.62
71666;BME280;59503;53.486;10.196;2023-02-08T14:13:21;103894.09;;;3.78;59.45
71666;BME280;59503;53.486;10.196;2023-02-08T14:18:53;103898.56;;;3.73;60.11
71666;BME280;59503;53.486;10.196;2023-02-08T14:21:45;103891.88;;;3.75;59.86
71666;BME280;59503;53.486;10.196;2023-02-08T14:24:26;103892.22;;;3.79;60.13
71666;BME280;59503;53.486;10.196;2023-02-08T14:27:08;103879.97;;;3.71;59.88
71666;BME280;59503;53.486;10.196;2023-02-08T14:29:35;103881.63;;;3.72;60.00
71666;BME280;59503;53.486;10.196;2023-02-08T14:32:01;103879.16;;;3.71;60.86
71666;BME280;59503;53.486;10.196;2023-02-08T14:34:34;103876.22;;;3.72;60.52
71666;BME280;59503;53.486;10.196;2023-02-08T14:39:46;103872.75;;;3.60;62.04
71666;BME280;59503;53.486;10.196;2023-02-08T14:47:56;103854.56;;;3.39;61.83
71666;BME280;59503;53.486;10.196;2023-02-08T14:50:28;103852.34;;;3.36;61.99
71666;BME280;59503;53.486;10.196;2023-02-08T14:53:16;103868.03;;;3.28;63.05
71666;BME280;59503;53.486;10.196;2023-02-08T14:55:54;103863.13;;;3.25;64.19